createdAt,value
2018-04-02T00:01:12.937Z,6.99
2018-04-02T00:03:41.079Z,7.01
2018-04-02T00:06:09.282Z,6.99
2018-04-02T00:08:38.165Z,6.96
2018-04-02T00:11:06.321Z,7.01
2018-04-02T00:13:34.690Z,6.97
2018-04-02T00:16:03.697Z,6.94
2018-04-02T00:18:32.497Z,6.99
2018-04-02T00:21:01.618Z,7.05
2018-04-02T00:23:30.885Z,7.06
2018-04-02T00:25:58.985Z,7.04
2018-04-02T00:28:27.210Z,6.93
2018-04-02T00:30:55.315Z,7.01
2018-04-02T00:33:23.445Z,6.91
2018-04-02T00:35:52.362Z,6.89
2018-04-02T00:38:20.949Z,6.91
2018-04-02T00:40:49.086Z,6.87
2018-04-02T00:43:17.245Z,6.87
2018-04-02T00:45:45.319Z,6.82
2018-04-02T00:48:13.409Z,6.80
2018-04-02T00:50:46.458Z,6.82
2018-04-02T00:53:14.559Z,6.78
2018-04-02T00:55:42.923Z,6.80
2018-04-02T00:58:11.021Z,6.77
2018-04-02T01:00:39.164Z,6.78
2018-04-02T01:03:07.760Z,6.73
2018-04-02T01:05:35.885Z,6.79
2018-04-02T01:08:04.006Z,6.82
2018-04-02T01:10:32.095Z,6.82
2018-04-02T01:13:00.203Z,6.84
2018-04-02T01:15:28.919Z,6.84
2018-04-02T01:17:57.028Z,6.89
2018-04-02T01:20:25.286Z,6.81
2018-04-02T01:22:53.394Z,6.80
2018-04-02T01:25:21.488Z,6.80
2018-04-02T01:27:49.666Z,6.73
2018-04-02T01:30:18.207Z,6.73
2018-04-02T01:32:46.290Z,6.74
2018-04-02T01:35:14.565Z,6.74
2018-04-02T01:37:43.445Z,6.72
2018-04-02T01:40:12.271Z,6.73
2018-04-02T01:42:40.375Z,6.76
2018-04-02T01:45:08.472Z,6.75
2018-04-02T01:47:36.596Z,6.71
2018-04-02T01:50:04.740Z,6.77
2018-04-02T01:52:33.510Z,6.70
2018-04-02T01:55:01.633Z,6.75
2018-04-02T01:57:29.755Z,6.73
2018-04-02T01:59:57.863Z,6.72
2018-04-02T02:02:26.244Z,6.64
2018-04-02T02:05:09.140Z,6.59
2018-04-02T02:07:37.371Z,6.57
2018-04-02T02:10:06.434Z,6.63
2018-04-02T02:12:34.544Z,6.60
2018-04-02T02:15:02.690Z,6.59
2018-04-02T02:17:30.819Z,6.65
2018-04-02T02:19:58.943Z,6.61
2018-04-02T02:22:27.265Z,6.55
2018-04-02T02:24:55.349Z,6.64
2018-04-02T02:27:23.462Z,6.67
2018-04-02T02:29:51.561Z,6.63
2018-04-02T02:32:20.545Z,6.64
2018-04-02T02:34:48.685Z,6.60
2018-04-02T02:37:16.862Z,6.60
2018-04-02T02:39:44.953Z,6.62
2018-04-02T02:42:13.111Z,6.61
2018-04-02T02:44:41.231Z,6.51
2018-04-02T02:47:09.325Z,6.51
2018-04-02T02:49:37.440Z,6.47
2018-04-02T02:52:06.468Z,6.51
2018-04-02T02:54:34.570Z,6.48
2018-04-02T02:57:02.697Z,6.46
2018-04-02T02:59:30.807Z,6.51
2018-04-02T03:01:58.922Z,6.47
2018-04-02T03:04:27.084Z,6.44
2018-04-02T03:06:55.203Z,6.47
2018-04-02T03:09:23.309Z,6.46
2018-04-02T03:11:51.474Z,6.48
2018-04-02T03:14:20.452Z,6.44
2018-04-02T03:16:48.543Z,6.43
2018-04-02T03:19:16.747Z,6.44
2018-04-02T03:21:44.889Z,6.50
2018-04-02T03:24:12.981Z,6.44
2018-04-02T03:26:41.746Z,6.44
2018-04-02T03:29:09.891Z,6.45
2018-04-02T03:31:37.988Z,6.53
2018-04-02T03:34:06.112Z,6.53
2018-04-02T03:36:35.026Z,6.51
2018-04-02T03:39:03.890Z,6.46
2018-04-02T03:41:32.018Z,6.55
2018-04-02T03:44:00.104Z,6.56
2018-04-02T03:46:29.064Z,6.59
2018-04-02T03:48:59.847Z,6.63
2018-04-02T03:51:27.986Z,6.54
2018-04-02T03:53:56.601Z,6.53
2018-04-02T03:56:24.734Z,6.53
2018-04-02T03:58:52.859Z,6.54
2018-04-02T04:01:20.987Z,6.55
2018-04-02T04:03:49.151Z,6.47
2018-04-02T04:06:17.307Z,6.53
2018-04-02T04:08:45.396Z,6.49
2018-04-02T04:11:13.506Z,6.45
2018-04-02T04:13:41.622Z,6.48
2018-04-02T04:16:09.714Z,6.47
2018-04-02T04:18:38.240Z,6.40
2018-04-02T04:21:06.348Z,6.46
2018-04-02T04:23:34.437Z,6.45
2018-04-02T04:26:02.546Z,6.48
2018-04-02T04:28:31.413Z,6.48
2018-04-02T04:30:59.515Z,6.46
2018-04-02T04:33:28.021Z,6.49
2018-04-02T04:35:56.693Z,6.49
2018-04-02T04:38:24.807Z,6.41
2018-04-02T04:40:52.901Z,6.37
2018-04-02T04:43:21.037Z,6.36
2018-04-02T04:45:49.121Z,6.30
2018-04-02T04:48:17.213Z,6.30
2018-04-02T04:50:45.338Z,6.33
2018-04-02T04:53:13.822Z,6.27
2018-04-02T04:55:41.929Z,6.33
2018-04-02T04:58:10.066Z,6.26
2018-04-02T05:00:38.300Z,6.28
2018-04-02T05:03:06.393Z,6.35
2018-04-02T05:05:34.521Z,6.31
2018-04-02T05:08:02.605Z,6.30
2018-04-02T05:10:30.748Z,6.26
2018-04-02T05:12:59.377Z,6.25
2018-04-02T05:15:27.490Z,6.28
2018-04-02T05:17:55.935Z,6.37
2018-04-02T05:20:24.034Z,6.38
2018-04-02T05:22:52.265Z,6.32
2018-04-02T05:25:20.372Z,6.35
2018-04-02T05:27:48.462Z,6.31
2018-04-02T05:30:17.178Z,6.34
2018-04-02T05:32:45.296Z,6.39
2018-04-02T05:35:13.402Z,6.36
2018-04-02T05:37:42.330Z,6.31
2018-04-02T05:40:10.455Z,6.32
2018-04-02T05:42:38.571Z,6.31
2018-04-02T05:45:06.714Z,6.32
2018-04-02T05:47:34.841Z,6.37
2018-04-02T05:50:03.792Z,6.37
2018-04-02T05:52:31.904Z,6.30
2018-04-02T05:54:59.997Z,6.29
2018-04-02T05:57:28.152Z,6.30
2018-04-02T05:59:56.246Z,6.36
2018-04-02T06:02:24.908Z,6.42
2018-04-02T06:04:54.019Z,6.37
2018-04-02T06:07:22.106Z,6.38
2018-04-02T06:09:50.216Z,6.30
2018-04-02T06:12:18.341Z,6.35
2018-04-02T06:14:46.481Z,6.34
2018-04-02T06:17:15.334Z,6.34
2018-04-02T06:19:43.463Z,6.38
2018-04-02T06:22:11.565Z,6.39
2018-04-02T06:24:39.805Z,6.46
2018-04-02T06:27:07.910Z,6.49
2018-04-02T06:29:36.112Z,6.49
2018-04-02T06:32:04.221Z,6.48
2018-04-02T06:34:32.422Z,6.53
2018-04-02T06:37:01.239Z,6.53
2018-04-02T06:39:29.257Z,6.58
2018-04-02T06:41:58.165Z,6.60
2018-04-02T06:44:26.961Z,6.58
2018-04-02T06:46:55.079Z,6.63
2018-04-02T06:49:23.502Z,6.56
2018-04-02T06:51:51.582Z,6.63
2018-04-02T06:54:19.674Z,6.69
2018-04-02T06:56:47.861Z,6.71
2018-04-02T06:59:16.470Z,6.72
2018-04-02T07:01:44.584Z,6.75
2018-04-02T07:04:13.146Z,6.72
2018-04-02T07:06:46.215Z,6.64
2018-04-02T07:09:14.339Z,6.70
2018-04-02T07:11:42.478Z,6.70
2018-04-02T07:14:10.580Z,6.71
2018-04-02T07:16:38.702Z,6.72
2018-04-02T07:19:06.826Z,6.75
2018-04-02T07:21:35.570Z,6.78
2018-04-02T07:36:53.698Z,6.78
2018-04-02T07:39:21.806Z,6.80
2018-04-02T07:41:49.954Z,6.84
2018-04-02T07:44:18.610Z,6.88
2018-04-02T07:46:47.256Z,6.89
2018-04-02T07:49:15.454Z,6.90
2018-04-02T07:51:43.538Z,6.91
2018-04-02T07:54:11.681Z,6.96
2018-04-02T07:56:39.945Z,6.97
2018-04-02T07:59:08.031Z,7.00
2018-04-02T08:01:36.156Z,7.04
2018-04-02T08:04:04.262Z,7.03
2018-04-02T08:06:32.389Z,7.08
2018-04-02T08:09:00.517Z,7.04
2018-04-02T08:11:29.246Z,7.08
2018-04-02T08:13:58.820Z,7.11
2018-04-02T08:16:26.972Z,7.11
2018-04-02T08:18:58.027Z,7.09
2018-04-02T08:21:26.142Z,7.13
2018-04-02T08:33:34.279Z,7.17
2018-04-02T08:36:03.054Z,7.18
2018-04-02T08:38:31.154Z,7.24
2018-04-02T08:40:59.505Z,7.27
2018-04-02T08:43:27.593Z,7.29
2018-04-02T08:45:55.701Z,7.31
2018-04-02T08:48:23.822Z,7.38
2018-04-02T08:50:51.980Z,7.42
2018-04-02T08:53:20.164Z,7.48
2018-04-02T08:55:48.290Z,7.50
2018-04-02T08:58:16.414Z,7.55
2018-04-02T09:00:44.603Z,7.57
2018-04-02T09:03:12.669Z,7.63
2018-04-02T09:05:40.827Z,7.65
2018-04-02T09:08:08.956Z,7.73
2018-04-02T09:10:37.064Z,7.70
2018-04-02T09:13:05.167Z,7.79
2018-04-02T09:15:33.277Z,7.82
2018-04-02T09:18:01.377Z,7.85
2018-04-02T09:20:29.505Z,7.87
2018-04-02T09:22:57.617Z,7.92
2018-04-02T09:25:26.520Z,7.97
2018-04-02T09:27:54.660Z,7.97
2018-04-02T09:30:23.778Z,7.97
2018-04-02T09:32:52.127Z,8.05
2018-04-02T09:35:20.227Z,8.09
2018-04-02T09:37:48.318Z,8.14
2018-04-02T09:40:16.447Z,8.19
2018-04-02T09:42:44.555Z,8.19
2018-04-02T09:45:13.203Z,8.21
2018-04-02T09:47:41.340Z,8.23
2018-04-02T09:50:09.416Z,8.27
2018-04-02T09:52:37.527Z,8.36
2018-04-02T09:55:06.112Z,8.37
2018-04-02T10:10:29.463Z,8.63
2018-04-02T10:12:57.534Z,8.70
2018-04-02T10:15:26.427Z,8.77
2018-04-02T10:17:54.548Z,8.84
2018-04-02T10:20:22.675Z,8.90
2018-04-02T10:22:51.097Z,8.90
2018-04-02T10:25:19.317Z,8.89
2018-04-02T10:27:47.417Z,8.90
2018-04-02T10:30:16.379Z,8.95
2018-04-02T10:32:44.552Z,9.00
2018-04-02T10:35:12.643Z,9.02
2018-04-02T10:37:41.582Z,9.04
2018-04-02T10:40:10.679Z,9.01
2018-04-02T10:42:38.782Z,9.09
2018-04-02T10:45:06.923Z,9.12
2018-04-02T10:47:35.033Z,9.18
2018-04-02T10:50:04.125Z,9.14
2018-04-02T11:05:26.185Z,9.41
2018-04-02T11:07:54.489Z,9.42
2018-04-02T11:10:22.595Z,9.46
2018-04-02T11:12:50.695Z,9.47
2018-04-02T11:28:10.123Z,9.50
2018-04-02T11:30:38.262Z,9.55
2018-04-02T11:33:06.394Z,9.60
2018-04-02T11:35:34.532Z,9.64
2018-04-02T11:38:02.681Z,9.65
2018-04-02T11:40:31.342Z,9.69
2018-04-02T11:42:59.457Z,9.75
2018-04-02T11:45:27.568Z,9.79
2018-04-02T11:47:56.295Z,9.84
2018-04-02T11:50:24.480Z,9.89
2018-04-02T11:52:52.579Z,9.97
2018-04-02T11:55:20.775Z,10.02
2018-04-02T11:57:48.903Z,10.04
2018-04-02T12:00:17.005Z,10.10
2018-04-02T12:02:45.163Z,10.13
2018-04-02T12:05:13.296Z,10.19
2018-04-02T12:07:42.457Z,10.23
2018-04-02T12:10:10.566Z,10.29
2018-04-02T12:12:38.695Z,10.30
2018-04-02T12:15:06.943Z,10.31
2018-04-02T12:17:35.062Z,10.36
2018-04-02T12:20:03.264Z,10.42
2018-04-02T12:22:31.375Z,10.44
2018-04-02T12:24:59.549Z,10.45
2018-04-02T12:27:27.637Z,10.45
2018-04-02T12:29:56.301Z,10.55
2018-04-02T12:32:24.507Z,10.60
2018-04-02T12:34:52.597Z,10.68
2018-04-02T12:37:21.632Z,10.69
2018-04-02T12:39:49.737Z,10.75
2018-04-02T12:42:17.883Z,10.80
2018-04-02T12:44:46.012Z,10.83
2018-04-02T12:47:14.121Z,10.84
2018-04-02T12:49:42.753Z,10.88
2018-04-02T12:52:11.121Z,10.95
2018-04-02T12:54:39.229Z,10.99
2018-04-02T12:57:07.352Z,11.03
2018-04-02T12:59:35.556Z,11.09
2018-04-02T13:02:03.684Z,11.14
2018-04-02T13:04:31.806Z,11.19
2018-04-02T13:06:59.967Z,11.27
2018-04-02T13:09:28.055Z,11.34
2018-04-02T13:11:56.154Z,11.41
2018-04-02T13:14:24.281Z,11.45
2018-04-02T13:16:52.408Z,11.47
2018-04-02T13:19:20.631Z,11.46
2018-04-02T13:21:49.644Z,11.49
2018-04-02T13:24:18.592Z,11.48
2018-04-02T13:26:46.735Z,11.52
2018-04-02T13:29:14.836Z,11.49
2018-04-02T13:31:42.945Z,11.52
2018-04-02T13:34:11.392Z,11.52
2018-04-02T13:36:39.488Z,11.57
2018-04-02T13:39:07.651Z,11.61
2018-04-02T13:41:36.601Z,11.63
2018-04-02T13:56:54.707Z,11.90
2018-04-02T13:59:22.825Z,11.94
2018-04-02T14:01:50.949Z,11.96
2018-04-02T14:04:19.048Z,12.00
2018-04-02T14:06:47.159Z,12.07
2018-04-02T14:22:11.114Z,12.14
2018-04-02T14:24:40.434Z,12.12
2018-04-02T14:27:08.474Z,12.16
2018-04-02T14:29:36.823Z,12.20
2018-04-02T14:32:04.948Z,12.27
2018-04-02T14:34:33.954Z,12.32
2018-04-02T14:37:02.583Z,12.34
2018-04-02T14:39:30.710Z,12.32
2018-04-02T14:41:58.803Z,12.37
2018-04-02T14:44:26.991Z,12.41
2018-04-02T14:46:55.102Z,12.47
2018-04-02T14:49:23.205Z,12.52
2018-04-02T14:51:51.301Z,12.60
2018-04-02T14:54:19.492Z,12.54
2018-04-02T14:56:47.560Z,12.57
2018-04-02T14:59:15.710Z,12.57
2018-04-02T15:01:43.906Z,12.61
2018-04-02T15:04:11.995Z,12.60
2018-04-02T15:06:40.744Z,12.66
2018-04-02T15:09:08.852Z,12.70
2018-04-02T15:11:36.992Z,12.76
2018-04-02T15:14:06.089Z,12.80
2018-04-02T15:16:34.184Z,12.84
2018-04-02T15:19:02.348Z,12.86
2018-04-02T15:21:30.433Z,12.89
2018-04-02T15:23:58.758Z,12.89
2018-04-02T15:26:26.842Z,12.91
2018-04-02T15:28:54.932Z,12.91
2018-04-02T15:31:23.063Z,12.95
2018-04-02T15:33:51.142Z,12.98
2018-04-02T15:36:19.881Z,13.03
2018-04-02T15:38:48.315Z,13.07
2018-04-02T15:41:16.414Z,13.14
2018-04-02T15:43:44.520Z,13.17
2018-04-02T15:46:12.663Z,13.23
2018-04-02T15:48:41.025Z,13.29
2018-04-02T15:51:10.015Z,13.35
2018-04-02T15:53:38.127Z,13.48
2018-04-02T15:56:06.882Z,13.55
2018-04-02T15:58:34.957Z,13.57
2018-04-02T16:01:03.121Z,13.61
2018-04-02T16:03:31.296Z,13.63
2018-04-02T16:05:59.412Z,13.62
2018-04-02T16:08:28.363Z,13.63
2018-04-02T16:10:56.433Z,13.63
2018-04-02T16:13:24.531Z,13.63
2018-04-02T16:15:53.018Z,13.65
2018-04-02T16:18:21.097Z,13.62
2018-04-02T16:20:49.186Z,13.59
2018-04-02T16:23:17.292Z,13.64
2018-04-02T16:25:45.621Z,13.67
2018-04-02T16:28:13.699Z,13.66
2018-04-02T16:30:42.090Z,13.66
2018-04-02T16:33:10.177Z,13.66
2018-04-02T16:35:38.269Z,13.64
2018-04-02T16:38:06.381Z,13.67
2018-04-02T16:40:36.567Z,13.64
2018-04-02T16:43:04.687Z,13.64
2018-04-02T16:45:32.782Z,13.64
2018-04-02T16:48:00.899Z,13.66
2018-04-02T16:50:29.050Z,13.65
2018-04-02T16:52:57.316Z,13.65
2018-04-02T16:55:25.491Z,13.64
2018-04-02T16:57:53.578Z,13.62
2018-04-02T17:00:21.687Z,13.62
2018-04-02T17:02:49.781Z,13.56
2018-04-02T17:05:18.834Z,13.55
2018-04-02T17:07:47.100Z,13.55
2018-04-02T17:10:15.256Z,13.53
2018-04-02T17:12:43.318Z,13.49
2018-04-02T17:15:11.442Z,13.48
2018-04-02T17:17:40.394Z,13.43
2018-04-02T17:20:08.567Z,13.43
2018-04-02T17:22:36.621Z,13.40
2018-04-02T17:25:05.388Z,13.40
2018-04-02T17:27:33.518Z,13.37
2018-04-02T17:30:02.461Z,13.35
2018-04-02T17:32:30.531Z,13.34
2018-04-02T17:34:59.513Z,13.32
2018-04-02T17:37:27.736Z,13.31
2018-04-02T17:39:56.612Z,13.28
2018-04-02T17:42:24.710Z,13.24
2018-04-02T17:44:52.906Z,13.23
2018-04-02T17:47:21.008Z,13.21
2018-04-02T17:49:49.150Z,13.19
2018-04-02T17:52:18.269Z,13.17
2018-04-02T17:54:46.341Z,13.13
2018-04-02T17:57:14.499Z,13.13
2018-04-02T17:59:42.627Z,13.11
2018-04-02T18:02:10.866Z,13.07
2018-04-02T18:04:38.963Z,13.05
2018-04-02T18:07:07.202Z,13.00
2018-04-02T18:09:35.340Z,12.97
2018-04-02T18:12:03.593Z,12.90
2018-04-02T18:14:31.674Z,12.90
2018-04-02T18:17:00.622Z,12.83
2018-04-02T18:19:28.703Z,12.73
2018-04-02T18:21:56.892Z,12.70
2018-04-02T18:24:25.002Z,12.57
2018-04-02T18:26:53.424Z,12.41
2018-04-02T18:29:21.514Z,12.19
2018-04-02T18:31:49.674Z,12.24
2018-04-02T18:34:17.944Z,12.09
2018-04-02T18:36:46.198Z,11.90
2018-04-02T18:39:14.779Z,11.91
2018-04-02T18:41:42.852Z,11.87
2018-04-02T18:44:11.889Z,11.85
2018-04-02T18:46:40.013Z,11.79
2018-04-02T18:49:08.103Z,11.81
2018-04-02T18:51:36.211Z,11.71
2018-04-02T18:54:04.326Z,11.71
2018-04-02T18:56:33.217Z,11.65
2018-04-02T18:59:01.313Z,11.63
2018-04-02T19:01:29.427Z,11.63
2018-04-02T19:03:57.518Z,11.64
2018-04-02T19:06:26.562Z,11.61
2018-04-02T19:08:54.707Z,11.59
2018-04-02T19:11:22.816Z,11.52
2018-04-02T19:13:50.945Z,11.52
2018-04-02T19:16:19.041Z,11.52
2018-04-02T19:18:47.172Z,11.47
2018-04-02T19:21:15.261Z,11.50
2018-04-02T19:23:43.354Z,11.49
2018-04-02T19:26:11.467Z,11.48
2018-04-02T19:28:39.595Z,11.52
2018-04-02T19:31:07.692Z,11.42
2018-04-02T19:33:36.098Z,11.43
2018-04-02T19:36:04.195Z,11.44
2018-04-02T19:38:32.292Z,11.40
2018-04-02T19:53:50.390Z,11.27
2018-04-02T19:56:18.747Z,11.27
2018-04-02T19:58:46.871Z,11.27
2018-04-02T20:01:14.951Z,11.28
2018-04-02T20:03:43.050Z,11.26
2018-04-02T20:06:11.166Z,11.27
2018-04-02T20:08:39.281Z,11.27
2018-04-02T20:11:07.387Z,11.22
2018-04-02T20:13:35.476Z,11.27
2018-04-02T20:16:03.932Z,11.20
2018-04-02T20:18:32.055Z,11.18
2018-04-02T20:21:00.202Z,11.18
2018-04-02T20:23:28.324Z,11.17
2018-04-02T20:25:56.408Z,11.17
2018-04-02T20:28:24.497Z,11.17
2018-04-02T20:30:52.852Z,11.18
2018-04-02T20:33:21.751Z,11.18
2018-04-02T20:48:40.747Z,11.23
2018-04-02T20:51:08.844Z,11.21
2018-04-02T20:53:36.955Z,11.25
2018-04-02T20:56:05.067Z,11.18
2018-04-02T20:58:33.169Z,11.19
2018-04-02T21:01:01.285Z,11.20
2018-04-02T21:03:30.297Z,11.23
2018-04-02T21:05:58.422Z,11.19
2018-04-02T21:08:26.521Z,11.18
2018-04-02T21:10:54.615Z,11.14
2018-04-02T21:13:22.739Z,11.19
2018-04-02T21:15:50.823Z,11.21
2018-04-02T21:18:18.930Z,11.23
2018-04-02T21:20:47.222Z,11.24
2018-04-02T21:23:15.306Z,11.25
2018-04-02T21:25:43.422Z,11.20
2018-04-02T21:28:11.660Z,11.19
2018-04-02T21:30:39.799Z,11.23
2018-04-02T21:33:07.904Z,11.26
2018-04-02T21:35:36.015Z,11.31
2018-04-02T21:38:05.028Z,11.30
2018-04-02T21:40:33.157Z,11.19
2018-04-02T21:43:01.414Z,11.29
2018-04-02T21:58:24.912Z,11.33
2018-04-02T22:00:53.001Z,11.32
2018-04-02T22:03:21.626Z,11.27
2018-04-02T22:05:49.803Z,11.30
2018-04-02T22:08:18.167Z,11.31
2018-04-02T22:10:46.261Z,11.22
2018-04-02T22:13:14.398Z,11.00
2018-04-02T22:15:42.511Z,10.97
2018-04-02T22:18:10.622Z,11.01
2018-04-02T22:20:39.680Z,11.12
2018-04-02T22:23:07.847Z,11.03
2018-04-02T22:25:35.967Z,11.06
2018-04-02T22:41:00.011Z,11.16
2018-04-02T22:43:29.367Z,11.11
2018-04-02T22:45:57.517Z,11.17
2018-04-02T22:48:25.615Z,11.17
2018-04-02T22:50:53.770Z,11.17
2018-04-02T22:53:21.946Z,11.21
2018-04-02T22:55:50.076Z,11.21
2018-04-02T22:58:18.170Z,11.17
2018-04-02T23:00:46.331Z,11.21
2018-04-02T23:03:14.690Z,11.21
2018-04-02T23:05:42.834Z,11.19
2018-04-02T23:08:10.965Z,11.29
2018-04-02T23:10:39.050Z,11.34
2018-04-02T23:13:07.199Z,11.38
2018-04-02T23:15:35.309Z,11.45
2018-04-02T23:18:03.923Z,11.38
2018-04-02T23:20:32.015Z,11.36
2018-04-02T23:23:00.419Z,11.32
2018-04-02T23:25:28.507Z,11.41
2018-04-02T23:27:57.592Z,11.51
2018-04-02T23:30:25.693Z,11.50
2018-04-02T23:32:54.564Z,11.54
2018-04-02T23:35:22.739Z,11.46
2018-04-02T23:37:50.842Z,11.50
2018-04-02T23:40:18.940Z,11.53
2018-04-02T23:42:47.082Z,11.49
2018-04-02T23:45:15.241Z,11.43
2018-04-02T23:47:43.354Z,11.30
2018-04-02T23:50:11.498Z,11.34
2018-04-02T23:52:39.594Z,11.36
2018-04-02T23:55:07.794Z,11.35
2018-04-02T23:57:36.023Z,11.36
